createdAt,value
2017-11-21T00:00:09.146Z,48.50
2017-11-21T00:01:09.748Z,46.60
2017-11-21T00:02:09.278Z,45.60
2017-11-21T00:03:09.123Z,48.30
2017-11-21T00:04:09.645Z,49.10
2017-11-21T00:05:09.243Z,49.40
2017-11-21T00:06:09.867Z,47.40
2017-11-21T00:07:09.292Z,45.90
2017-11-21T00:08:09.779Z,47.60
2017-11-21T00:09:09.248Z,45.80
2017-11-21T00:10:09.720Z,44.20
2017-11-21T00:11:09.203Z,45.80
2017-11-21T00:12:09.243Z,44.20
2017-11-21T00:13:09.843Z,45.40
2017-11-21T00:14:09.485Z,44.30
2017-11-21T00:15:09.915Z,44.30
2017-11-21T00:16:09.638Z,46.00
2017-11-21T00:17:09.645Z,43.30
2017-11-21T00:18:09.066Z,46.90
2017-11-21T00:19:09.496Z,49.00
2017-11-21T00:20:10.021Z,45.20
2017-11-21T00:21:09.181Z,45.20
2017-11-21T00:22:09.946Z,44.90
2017-11-21T00:23:09.390Z,44.60
2017-11-21T00:24:09.871Z,45.20
2017-11-21T00:25:09.414Z,45.00
2017-11-21T00:26:09.875Z,43.80
2017-11-21T00:27:09.723Z,45.40
2017-11-21T00:28:09.196Z,47.10
2017-11-21T00:29:09.766Z,46.40
2017-11-21T00:30:09.823Z,45.90
2017-11-21T00:31:09.418Z,45.90
2017-11-21T00:32:10.290Z,45.00
2017-11-21T00:33:09.379Z,45.00
2017-11-21T00:34:09.934Z,43.50
2017-11-21T00:35:09.745Z,45.30
2017-11-21T00:36:09.874Z,45.00
2017-11-21T00:37:09.663Z,46.10
2017-11-21T00:38:09.125Z,45.00
2017-11-21T00:39:09.610Z,46.10
2017-11-21T00:40:09.215Z,47.80
2017-11-21T00:41:09.619Z,47.70
2017-11-21T00:42:09.142Z,48.20
2017-11-21T00:43:09.657Z,46.10
2017-11-21T00:44:09.333Z,49.50
2017-11-21T00:45:09.733Z,49.00
2017-11-21T00:46:09.260Z,49.30
2017-11-21T00:47:09.810Z,47.70
2017-11-21T00:48:09.396Z,48.60
2017-11-21T00:49:09.874Z,49.80
2017-11-21T00:50:09.612Z,50.20
2017-11-21T00:51:09.100Z,50.50
2017-11-21T00:52:09.660Z,50.60
2017-11-21T00:53:09.170Z,48.70
2017-11-21T00:54:10.413Z,48.60
2017-11-21T00:55:09.948Z,48.80
2017-11-21T00:56:09.533Z,50.60
2017-11-21T00:57:09.021Z,46.20
2017-11-21T00:58:09.432Z,46.00
2017-11-21T00:59:09.951Z,48.70
2017-11-21T01:00:09.421Z,37.90
2017-11-21T01:01:09.889Z,47.60
2017-11-21T01:02:09.245Z,43.30
2017-11-21T01:03:09.746Z,45.00
2017-11-21T01:04:09.280Z,45.30
2017-11-21T01:05:10.043Z,44.70
2017-11-21T01:06:09.435Z,47.60
2017-11-21T01:07:10.005Z,40.90
2017-11-21T01:08:09.372Z,44.30
2017-11-21T01:09:09.787Z,38.70
2017-11-21T01:10:09.204Z,40.00
2017-11-21T01:11:09.634Z,39.10
2017-11-21T01:12:09.112Z,36.00
2017-11-21T01:13:09.546Z,36.20
2017-11-21T01:14:10.033Z,36.30
2017-11-21T01:15:09.413Z,36.10
2017-11-21T01:16:10.178Z,33.60
2017-11-21T01:17:08.992Z,33.40
2017-11-21T01:18:09.424Z,31.90
2017-11-21T01:19:09.825Z,31.60
2017-11-21T01:20:09.135Z,31.90
2017-11-21T01:21:09.797Z,32.30
2017-11-21T01:22:09.641Z,30.50
2017-11-21T01:23:09.707Z,29.20
2017-11-21T01:24:09.163Z,30.50
2017-11-21T01:25:09.657Z,30.40
2017-11-21T01:26:09.213Z,29.10
2017-11-21T01:27:09.864Z,28.50
2017-11-21T01:28:09.154Z,30.30
2017-11-21T01:29:09.583Z,29.20
2017-11-21T01:30:10.606Z,30.80
2017-11-21T01:31:10.100Z,32.10
2017-11-21T01:32:09.751Z,28.80
2017-11-21T01:33:09.327Z,30.60
2017-11-21T01:34:09.763Z,28.90
2017-11-21T01:35:09.238Z,28.60
2017-11-21T01:36:09.677Z,27.10
2017-11-21T01:37:09.221Z,27.40
2017-11-21T01:38:10.210Z,28.20
2017-11-21T01:39:09.604Z,27.50
2017-11-21T01:40:09.048Z,27.30
2017-11-21T01:41:09.359Z,27.60
2017-11-21T01:42:09.727Z,27.90
2017-11-21T01:43:09.120Z,26.60
2017-11-21T01:44:09.877Z,23.80
2017-11-21T01:45:09.384Z,25.70
2017-11-21T01:46:09.736Z,26.00
2017-11-21T01:47:09.389Z,25.10
2017-11-21T01:48:09.658Z,24.90
2017-11-21T01:49:09.601Z,24.10
2017-11-21T01:50:09.022Z,24.60
2017-11-21T01:51:09.424Z,23.40
2017-11-21T01:52:09.735Z,22.30
2017-11-21T01:53:09.489Z,23.00
2017-11-21T01:54:09.010Z,22.40
2017-11-21T01:55:09.478Z,22.70
2017-11-21T01:56:09.904Z,22.20
2017-11-21T01:57:09.796Z,21.90
2017-11-21T01:58:09.164Z,22.80
2017-11-21T01:59:09.270Z,21.60
2017-11-21T02:00:09.726Z,21.30
2017-11-21T02:01:09.092Z,21.80
2017-11-21T02:02:09.506Z,21.20
2017-11-21T02:03:09.998Z,23.30
2017-11-21T02:04:09.419Z,20.40
2017-11-21T02:05:09.872Z,20.50
2017-11-21T02:06:09.188Z,21.30
2017-11-21T02:07:09.555Z,20.40
2017-11-21T02:08:09.139Z,20.00
2017-11-21T02:09:09.472Z,20.90
2017-11-21T02:10:09.905Z,20.10
2017-11-21T02:11:08.977Z,19.00
2017-11-21T02:12:09.305Z,19.10
2017-11-21T02:13:09.716Z,18.80
2017-11-21T02:14:12.353Z,18.40
2017-11-21T02:15:11.739Z,19.10
2017-11-21T02:16:09.804Z,19.20
2017-11-21T02:17:09.422Z,18.30
2017-11-21T02:18:09.850Z,18.10
2017-11-21T02:19:09.399Z,16.90
2017-11-21T02:20:10.181Z,17.10
2017-11-21T02:21:09.740Z,17.70
2017-11-21T02:22:09.764Z,18.80
2017-11-21T02:23:12.392Z,18.50
2017-11-21T02:24:10.194Z,18.50
2017-11-21T02:25:10.447Z,17.30
2017-11-21T02:26:09.056Z,17.70
2017-11-21T02:27:09.617Z,18.60
2017-11-21T02:28:09.174Z,19.20
2017-11-21T02:29:09.907Z,18.90
2017-11-21T02:30:09.659Z,18.90
2017-11-21T02:31:09.243Z,18.90
2017-11-21T02:32:09.732Z,18.90
2017-11-21T02:33:09.254Z,19.20
2017-11-21T02:34:09.913Z,18.40
2017-11-21T02:35:10.087Z,19.40
2017-11-21T02:36:09.783Z,18.90
2017-11-21T02:37:10.187Z,20.50
2017-11-21T02:38:09.934Z,20.60
2017-11-21T02:39:09.766Z,19.20
2017-11-21T02:40:09.045Z,20.30
2017-11-21T02:41:09.054Z,19.90
2017-11-21T02:42:09.531Z,20.90
2017-11-21T02:43:11.664Z,19.90
2017-11-21T02:44:08.983Z,20.70
2017-11-21T02:45:11.036Z,19.30
2017-11-21T02:46:09.262Z,21.30
2017-11-21T02:47:09.692Z,20.00
2017-11-21T02:48:09.237Z,20.90
2017-11-21T02:49:09.707Z,20.50
2017-11-21T02:50:10.520Z,20.50
2017-11-21T02:51:11.673Z,22.10
2017-11-21T02:52:09.955Z,20.50
2017-11-21T02:53:11.522Z,20.90
2017-11-21T02:54:09.097Z,21.50
2017-11-21T02:55:09.778Z,22.00
2017-11-21T02:56:12.278Z,22.10
2017-11-21T02:57:09.844Z,22.30
2017-11-21T02:58:09.292Z,21.60
2017-11-21T02:59:09.459Z,23.00
2017-11-21T03:00:11.094Z,22.80
2017-11-21T03:01:09.803Z,23.60
2017-11-21T03:02:09.649Z,23.70
2017-11-21T03:03:09.449Z,23.30
2017-11-21T03:04:10.022Z,24.30
2017-11-21T03:05:09.075Z,23.30
2017-11-21T03:06:10.967Z,22.90
2017-11-21T03:07:10.024Z,22.50
2017-11-21T03:08:09.564Z,21.70
2017-11-21T03:09:09.911Z,24.00
2017-11-21T03:10:09.450Z,21.60
2017-11-21T03:11:09.931Z,22.80
2017-11-21T03:12:09.556Z,22.30
2017-11-21T03:13:09.962Z,21.80
2017-11-21T03:14:09.515Z,22.00
2017-11-21T03:15:09.074Z,20.00
2017-11-21T03:16:09.564Z,22.60
2017-11-21T03:17:08.999Z,22.80
2017-11-21T03:18:09.120Z,23.20
2017-11-21T03:19:09.649Z,21.00
2017-11-21T03:20:09.148Z,23.40
2017-11-21T03:21:10.198Z,23.30
2017-11-21T03:22:09.657Z,22.10
2017-11-21T03:23:09.959Z,22.30
2017-11-21T03:24:09.479Z,21.90
2017-11-21T03:25:10.076Z,21.00
2017-11-21T03:26:09.592Z,23.10
2017-11-21T03:27:09.934Z,21.70
2017-11-21T03:28:09.454Z,22.00
2017-11-21T03:29:10.037Z,20.60
2017-11-21T03:30:09.579Z,21.40
2017-11-21T03:31:09.595Z,21.50
2017-11-21T03:32:09.962Z,21.30
2017-11-21T03:33:09.333Z,21.10
2017-11-21T03:34:09.738Z,20.30
2017-11-21T03:35:09.137Z,20.10
2017-11-21T03:36:10.231Z,20.90
2017-11-21T03:37:09.615Z,20.30
2017-11-21T03:38:09.109Z,19.00
2017-11-21T03:39:09.635Z,21.00
2017-11-21T03:40:09.055Z,19.10
2017-11-21T03:41:09.435Z,18.20
2017-11-21T03:42:09.747Z,18.60
2017-11-21T03:43:09.166Z,18.30
2017-11-21T03:44:09.668Z,18.50
2017-11-21T03:45:09.022Z,19.80
2017-11-21T03:46:09.427Z,19.00
2017-11-21T03:47:09.801Z,18.90
2017-11-21T03:48:09.152Z,19.70
2017-11-21T03:49:09.153Z,17.80
2017-11-21T03:50:09.938Z,18.60
2017-11-21T03:51:09.241Z,19.40
2017-11-21T03:52:09.620Z,17.30
2017-11-21T03:53:08.979Z,18.40
2017-11-21T03:54:10.011Z,19.00
2017-11-21T03:55:09.366Z,18.30
2017-11-21T03:56:09.242Z,18.70
2017-11-21T03:57:09.994Z,18.70
2017-11-21T03:58:09.384Z,19.40
2017-11-21T03:59:09.685Z,18.90
2017-11-21T04:00:09.049Z,18.90
2017-11-21T04:01:09.419Z,19.00
2017-11-21T04:02:09.588Z,19.10
2017-11-21T04:03:10.096Z,18.80
2017-11-21T04:04:55.414Z,18.10
2017-11-21T04:05:55.984Z,18.80
2017-11-21T04:06:56.372Z,22.20
2017-11-21T04:07:55.858Z,22.90
2017-11-21T04:08:56.132Z,28.80
2017-11-21T04:09:56.763Z,21.70
2017-11-21T04:10:56.423Z,19.10
2017-11-21T04:11:55.781Z,20.00
2017-11-21T04:12:56.339Z,20.70
2017-11-21T04:13:55.691Z,20.00
2017-11-21T04:14:56.072Z,19.50
2017-11-21T04:15:55.355Z,19.10
2017-11-21T04:16:55.618Z,20.90
2017-11-21T04:17:55.975Z,19.30
2017-11-21T04:18:56.521Z,20.00
2017-11-21T04:19:55.983Z,19.90
2017-11-21T04:20:55.561Z,19.90
2017-11-21T04:21:56.120Z,20.60
2017-11-21T04:22:55.540Z,21.10
2017-11-21T04:23:55.928Z,20.00
2017-11-21T04:24:56.411Z,20.00
2017-11-21T04:25:55.766Z,20.50
2017-11-21T04:26:56.131Z,21.40
2017-11-21T04:27:55.674Z,21.70
2017-11-21T04:28:56.236Z,20.90
2017-11-21T04:29:55.688Z,23.10
2017-11-21T04:30:56.464Z,22.00
2017-11-21T04:31:55.774Z,22.90
2017-11-21T04:32:56.299Z,21.30
2017-11-21T04:33:55.633Z,23.30
2017-11-21T04:34:56.365Z,22.90
2017-11-21T04:35:55.830Z,23.50
2017-11-21T04:36:56.507Z,23.40
2017-11-21T04:37:55.896Z,23.40
2017-11-21T04:38:56.272Z,23.30
2017-11-21T04:39:55.583Z,25.10
2017-11-21T04:40:56.026Z,24.20
2017-11-21T04:41:56.485Z,22.90
2017-11-21T04:42:55.832Z,23.20
2017-11-21T04:43:56.260Z,24.40
2017-11-21T04:44:55.716Z,25.60
2017-11-21T04:45:56.145Z,23.90
2017-11-21T04:46:55.579Z,25.20
2017-11-21T04:47:55.952Z,24.90
2017-11-21T04:48:56.416Z,25.50
2017-11-21T04:49:56.325Z,24.90
2017-11-21T04:50:55.640Z,25.20
2017-11-21T04:51:55.929Z,25.30
2017-11-21T04:52:56.746Z,25.60
2017-11-21T04:53:56.139Z,26.50
2017-11-21T04:54:55.541Z,27.10
2017-11-21T04:55:56.105Z,26.40
2017-11-21T04:56:56.267Z,25.80
2017-11-21T04:57:55.659Z,26.60
2017-11-21T04:58:56.421Z,26.30
2017-11-21T04:59:55.810Z,25.90
2017-11-21T05:00:56.150Z,26.30
2017-11-21T05:01:55.761Z,25.90
2017-11-21T05:02:55.461Z,26.80
2017-11-21T05:03:55.647Z,26.90
2017-11-21T05:04:56.861Z,28.80
2017-11-21T05:05:56.260Z,28.20
2017-11-21T05:06:55.707Z,27.80
2017-11-21T05:07:56.216Z,30.00
2017-11-21T05:08:55.581Z,30.60
2017-11-21T05:09:56.388Z,29.30
2017-11-21T05:10:56.040Z,30.20
2017-11-21T05:11:55.468Z,31.00
2017-11-21T05:12:55.999Z,31.10
2017-11-21T05:13:56.352Z,31.70
2017-11-21T05:14:55.872Z,30.40
2017-11-21T05:15:56.590Z,30.40
2017-11-21T05:16:55.989Z,31.40
2017-11-21T05:17:55.963Z,32.10
2017-11-21T05:18:55.508Z,32.80
2017-11-21T05:19:55.946Z,33.00
2017-11-21T05:20:55.906Z,31.00
2017-11-21T05:21:55.788Z,30.70
2017-11-21T05:22:55.959Z,32.70
2017-11-21T05:23:55.412Z,33.00
2017-11-21T05:24:55.867Z,33.70
2017-11-21T05:25:55.917Z,32.30
2017-11-21T05:26:55.577Z,33.70
2017-11-21T05:27:56.131Z,32.50
2017-11-21T05:28:55.535Z,34.00
2017-11-21T05:29:56.047Z,34.10
2017-11-21T05:30:56.333Z,33.90
2017-11-21T05:31:55.762Z,33.70
2017-11-21T05:32:56.199Z,33.30
2017-11-21T05:33:55.701Z,34.40
2017-11-21T05:36:32.304Z,33.30
2017-11-21T05:37:32.732Z,33.90
2017-11-21T05:38:50.967Z,33.60
2017-11-21T05:39:32.439Z,33.80
2017-11-21T05:40:32.907Z,33.30
2017-11-21T05:41:32.366Z,36.70
2017-11-21T05:42:32.941Z,33.00
2017-11-21T05:43:32.400Z,33.20
2017-11-21T05:44:32.804Z,32.50
2017-11-21T05:45:32.155Z,33.90
2017-11-21T05:46:32.775Z,34.00
2017-11-21T05:47:32.570Z,34.30
2017-11-21T05:48:32.922Z,32.40
2017-11-21T05:49:32.655Z,33.60
2017-11-21T05:50:33.010Z,34.00
2017-11-21T05:51:32.898Z,32.80
2017-11-21T05:52:32.728Z,33.10
2017-11-21T05:53:32.181Z,32.50
2017-11-21T05:54:32.584Z,33.10
2017-11-21T05:55:32.978Z,32.60
2017-11-21T05:56:32.388Z,32.40
2017-11-21T05:57:33.080Z,32.30
2017-11-21T05:58:32.420Z,30.80
2017-11-21T05:59:32.815Z,29.50
2017-11-21T06:00:32.205Z,30.60
2017-11-21T06:01:32.644Z,29.10
2017-11-21T06:02:33.249Z,29.90
2017-11-21T06:03:32.633Z,30.90
2017-11-21T06:04:32.996Z,28.20
2017-11-21T06:05:32.605Z,27.00
2017-11-21T06:06:33.044Z,28.00
2017-11-21T06:07:32.941Z,24.80
2017-11-21T06:08:33.104Z,27.50
2017-11-21T06:09:32.732Z,27.20
2017-11-21T06:10:33.098Z,28.20
2017-11-21T06:11:32.440Z,26.00
2017-11-21T06:12:32.870Z,27.70
2017-11-21T06:13:32.588Z,27.30
2017-11-21T06:14:33.188Z,26.80
2017-11-21T06:15:32.600Z,27.80
2017-11-21T06:16:32.309Z,26.30
2017-11-21T06:17:32.710Z,28.00
2017-11-21T06:18:32.595Z,27.30
2017-11-21T06:19:32.353Z,27.30
2017-11-21T06:20:32.828Z,27.00
2017-11-21T06:21:32.150Z,27.40
2017-11-21T06:22:32.451Z,27.80
2017-11-21T06:23:33.124Z,26.60
2017-11-21T06:24:32.124Z,26.40
2017-11-21T06:25:32.693Z,27.50
2017-11-21T06:26:33.012Z,27.20
2017-11-21T06:27:32.383Z,28.00
2017-11-21T06:28:33.100Z,28.40
2017-11-21T06:29:32.490Z,27.60
2017-11-21T06:30:32.879Z,28.20
2017-11-21T06:31:32.285Z,28.70
2017-11-21T06:32:33.353Z,27.50
2017-11-21T06:33:33.173Z,27.50
2017-11-21T06:34:32.576Z,29.30
2017-11-21T06:35:32.548Z,28.80
2017-11-21T06:36:32.984Z,28.70
2017-11-21T06:37:32.293Z,28.70
2017-11-21T06:38:32.266Z,29.10
2017-11-21T06:39:33.523Z,31.40
2017-11-21T06:40:32.903Z,29.70
2017-11-21T06:41:32.313Z,29.70
2017-11-21T06:42:32.777Z,31.10
2017-11-21T06:43:32.810Z,30.10
2017-11-21T06:44:32.225Z,30.70
2017-11-21T06:45:32.510Z,29.50
2017-11-21T06:46:32.815Z,29.80
2017-11-21T06:47:32.204Z,31.00
2017-11-21T06:48:32.538Z,30.50
2017-11-21T06:49:32.990Z,30.30
2017-11-21T06:50:32.376Z,29.70
2017-11-21T06:51:32.908Z,30.80
2017-11-21T06:52:32.317Z,28.90
2017-11-21T06:53:32.785Z,31.60
2017-11-21T06:54:32.290Z,31.10
2017-11-21T06:55:32.627Z,30.90
2017-11-21T06:56:32.931Z,30.50
2017-11-21T06:57:33.354Z,30.70
2017-11-21T06:58:33.313Z,31.30
2017-11-21T06:59:33.116Z,28.00
2017-11-21T07:00:32.678Z,29.60
2017-11-21T07:01:33.089Z,28.60
2017-11-21T07:02:32.503Z,28.60
2017-11-21T07:03:33.359Z,27.00
2017-11-21T07:04:32.867Z,27.40
2017-11-21T07:05:32.421Z,28.30
2017-11-21T07:06:32.190Z,27.60
2017-11-21T07:07:33.234Z,26.40
2017-11-21T07:08:32.943Z,27.80
2017-11-21T07:09:32.510Z,27.70
2017-11-21T07:10:32.855Z,28.90
2017-11-21T07:11:32.552Z,28.90
2017-11-21T07:12:32.979Z,27.60
2017-11-21T07:13:32.437Z,28.40
2017-11-21T07:14:32.900Z,28.50
2017-11-21T07:15:32.408Z,28.20
2017-11-21T07:16:32.250Z,29.70
2017-11-21T07:17:32.725Z,29.60
2017-11-21T07:18:32.183Z,29.60
2017-11-21T07:19:32.958Z,29.80
2017-11-21T07:20:32.463Z,30.60
2017-11-21T07:21:32.905Z,31.30
2017-11-21T07:22:32.266Z,31.40
2017-11-21T07:23:32.885Z,30.00
2017-11-21T07:24:32.440Z,30.30
2017-11-21T07:25:32.793Z,31.20
2017-11-21T07:26:32.381Z,30.30
2017-11-21T07:27:33.153Z,30.30
2017-11-21T07:28:32.632Z,30.10
2017-11-21T07:29:33.758Z,30.60
2017-11-21T07:30:32.745Z,30.40
2017-11-21T07:31:32.394Z,30.90
2017-11-21T07:32:33.032Z,32.20
2017-11-21T07:33:33.027Z,32.00
2017-11-21T07:34:32.700Z,32.10
2017-11-21T07:35:33.117Z,32.70
2017-11-21T07:36:32.775Z,30.90
2017-11-21T07:37:32.473Z,30.90
2017-11-21T07:38:32.486Z,30.00
2017-11-21T07:39:32.973Z,31.20
2017-11-21T07:40:32.583Z,32.70
2017-11-21T07:41:34.430Z,32.00
2017-11-21T07:42:33.023Z,30.80
2017-11-21T07:43:32.983Z,31.70
2017-11-21T07:44:32.644Z,32.30
2017-11-21T07:45:32.677Z,30.30
2017-11-21T07:46:33.199Z,32.60
2017-11-21T07:47:32.816Z,31.00
2017-11-21T07:48:32.884Z,31.50
2017-11-21T07:49:32.623Z,31.00
2017-11-21T07:50:32.313Z,31.70
2017-11-21T07:51:32.268Z,31.00
2017-11-21T07:52:32.286Z,31.90
2017-11-21T07:53:32.859Z,34.10
2017-11-21T07:54:32.522Z,33.40
2017-11-21T07:55:33.342Z,33.20
2017-11-21T07:56:33.065Z,33.80
2017-11-21T07:57:32.855Z,35.60
2017-11-21T07:58:32.430Z,36.30
2017-11-21T07:59:33.240Z,33.40
2017-11-21T08:00:33.093Z,35.10
2017-11-21T08:01:32.723Z,36.80
2017-11-21T08:02:32.673Z,38.00
2017-11-21T08:03:33.070Z,37.40
2017-11-21T08:04:32.793Z,35.50
2017-11-21T08:05:32.506Z,38.60
2017-11-21T08:06:33.640Z,37.70
2017-11-21T08:07:33.352Z,36.70
2017-11-21T08:08:33.026Z,36.50
2017-11-21T08:09:32.697Z,35.80
2017-11-21T08:10:32.365Z,37.70
2017-11-21T08:11:32.971Z,37.30
2017-11-21T08:12:32.479Z,39.30
2017-11-21T08:13:33.151Z,36.80
2017-11-21T08:14:32.897Z,36.40
2017-11-21T08:15:32.548Z,38.70
2017-11-21T08:16:32.843Z,39.30
2017-11-21T08:17:32.439Z,39.10
2017-11-21T08:18:33.034Z,40.30
2017-11-21T08:19:32.673Z,38.40
2017-11-21T08:20:32.811Z,38.30
2017-11-21T08:21:32.953Z,38.90
2017-11-21T08:22:32.660Z,39.50
2017-11-21T08:23:32.366Z,38.30
2017-11-21T08:24:33.339Z,38.40
2017-11-21T08:25:33.276Z,39.20
2017-11-21T08:26:33.039Z,39.50
2017-11-21T08:27:32.801Z,40.50
2017-11-21T08:28:34.183Z,37.90
2017-11-21T08:29:35.452Z,38.80
2017-11-21T08:30:33.107Z,38.20
2017-11-21T08:31:32.865Z,38.80
2017-11-21T08:32:32.648Z,35.90
2017-11-21T08:33:32.495Z,38.10
2017-11-21T08:34:33.154Z,39.60
2017-11-21T08:35:32.797Z,39.10
2017-11-21T08:36:32.440Z,37.70
2017-11-21T08:37:33.035Z,38.70
2017-11-21T08:38:32.682Z,37.70
2017-11-21T08:39:32.634Z,37.10
2017-11-21T08:40:32.446Z,37.30
2017-11-21T08:41:33.196Z,36.80
2017-11-21T08:42:32.847Z,38.60
2017-11-21T08:43:32.470Z,39.60
2017-11-21T08:44:33.198Z,39.50
2017-11-21T08:45:32.767Z,39.50
2017-11-21T08:46:32.364Z,38.30
2017-11-21T08:47:33.302Z,38.00
2017-11-21T08:48:32.983Z,39.50
2017-11-21T08:49:32.619Z,38.70
2017-11-21T08:50:32.382Z,40.10
2017-11-21T08:51:32.670Z,37.90
2017-11-21T08:52:32.387Z,38.90
2017-11-21T08:53:33.386Z,40.00
2017-11-21T08:54:33.196Z,40.40
2017-11-21T08:55:32.939Z,38.30
2017-11-21T08:56:32.614Z,39.50
2017-11-21T08:57:33.287Z,38.40
2017-11-21T08:58:32.959Z,37.60
2017-11-21T08:59:33.042Z,38.50
2017-11-21T09:00:33.020Z,38.90
2017-11-21T09:01:33.344Z,38.60
2017-11-21T09:02:33.211Z,35.70
2017-11-21T09:03:32.977Z,37.60
2017-11-21T09:04:32.810Z,40.20
2017-11-21T09:05:32.763Z,38.80
2017-11-21T09:06:32.606Z,40.00
2017-11-21T09:07:32.597Z,40.50
2017-11-21T09:08:32.706Z,40.90
2017-11-21T09:09:32.570Z,41.60
2017-11-21T09:10:33.076Z,38.70
2017-11-21T09:11:33.003Z,41.80
2017-11-21T09:12:32.779Z,40.30
2017-11-21T09:13:32.697Z,40.60
2017-11-21T09:14:32.868Z,41.00
2017-11-21T09:15:32.821Z,40.30
2017-11-21T09:16:33.154Z,38.60
2017-11-21T09:17:32.951Z,40.00
2017-11-21T09:18:32.919Z,40.70
2017-11-21T09:19:33.106Z,39.40
2017-11-21T09:20:32.843Z,39.30
2017-11-21T09:21:32.800Z,38.40
2017-11-21T09:22:33.308Z,39.00
2017-11-21T09:23:33.166Z,35.90
2017-11-21T09:24:32.993Z,39.30
2017-11-21T09:25:32.696Z,38.60
2017-11-21T09:26:33.373Z,38.70
2017-11-21T09:27:33.018Z,38.40
2017-11-21T09:28:32.657Z,37.40
2017-11-21T09:29:33.205Z,36.40
2017-11-21T09:30:33.219Z,37.00
2017-11-21T09:31:34.112Z,35.60
2017-11-21T09:32:33.745Z,34.60
2017-11-21T09:33:32.840Z,37.00
2017-11-21T09:34:32.508Z,36.70
2017-11-21T09:35:32.746Z,36.70
2017-11-21T09:36:32.857Z,36.30
2017-11-21T09:37:33.167Z,34.70
2017-11-21T09:38:33.039Z,34.40
2017-11-21T09:39:32.736Z,34.30
2017-11-21T09:40:32.449Z,33.30
2017-11-21T09:41:36.916Z,34.90
2017-11-21T09:42:35.896Z,32.30
2017-11-21T09:43:32.735Z,32.10
2017-11-21T09:44:32.292Z,34.80
2017-11-21T09:45:32.859Z,32.50
2017-11-21T09:46:32.597Z,31.20
2017-11-21T09:47:33.603Z,31.90
2017-11-21T09:48:33.414Z,29.80
2017-11-21T09:49:33.121Z,31.50
2017-11-21T09:50:32.844Z,31.90
2017-11-21T09:51:32.556Z,31.90
2017-11-21T09:52:32.589Z,31.20
2017-11-21T09:53:33.127Z,32.40
2017-11-21T09:54:32.642Z,32.60
2017-11-21T09:55:33.180Z,30.40
2017-11-21T09:56:32.896Z,31.50
2017-11-21T09:57:32.860Z,30.60
2017-11-21T09:58:32.593Z,29.60
2017-11-21T09:59:32.639Z,29.60
2017-11-21T10:00:32.440Z,29.60
2017-11-21T10:01:33.060Z,30.00
2017-11-21T10:02:33.153Z,30.30
2017-11-21T10:03:32.748Z,29.50
2017-11-21T10:04:32.521Z,27.60
2017-11-21T10:05:33.478Z,28.80
2017-11-21T10:06:33.136Z,27.20
2017-11-21T10:07:33.198Z,28.00
2017-11-21T10:08:33.289Z,28.30
2017-11-21T10:09:33.053Z,29.30
2017-11-21T10:10:34.650Z,28.60
2017-11-21T10:11:33.490Z,29.30
2017-11-21T10:12:32.428Z,28.40
2017-11-21T10:13:34.201Z,29.90
2017-11-21T10:14:33.054Z,27.30
2017-11-21T10:15:32.748Z,28.50
2017-11-21T10:16:33.096Z,28.80
2017-11-21T10:17:32.889Z,26.90
2017-11-21T10:18:32.467Z,27.20
2017-11-21T10:19:34.475Z,27.20
2017-11-21T10:20:32.836Z,28.80
2017-11-21T10:21:32.690Z,27.90
2017-11-21T10:22:33.569Z,28.90
2017-11-21T10:23:32.622Z,27.60
2017-11-21T10:24:34.175Z,30.10
2017-11-21T10:25:32.793Z,27.50
2017-11-21T10:26:32.771Z,28.40
2017-11-21T10:27:32.567Z,27.60
2017-11-21T10:28:33.362Z,28.20
2017-11-21T10:29:33.118Z,29.00
2017-11-21T10:30:32.940Z,29.60
2017-11-21T10:31:32.740Z,29.50
2017-11-21T10:32:32.792Z,30.40
2017-11-21T10:33:34.860Z,28.40
2017-11-21T10:34:32.444Z,30.80
2017-11-21T10:35:33.229Z,31.80
2017-11-21T10:36:33.057Z,30.70
2017-11-21T10:37:33.193Z,30.20
2017-11-21T10:38:33.307Z,32.10
2017-11-21T10:39:32.909Z,31.20
2017-11-21T10:40:32.723Z,31.20
2017-11-21T10:41:32.556Z,30.60
2017-11-21T10:42:32.599Z,30.20
2017-11-21T10:43:32.836Z,32.10
2017-11-21T10:44:33.299Z,32.60
2017-11-21T10:45:32.923Z,31.90
2017-11-21T10:46:33.017Z,31.80
2017-11-21T10:47:32.780Z,32.40
2017-11-21T10:48:32.892Z,33.10
2017-11-21T10:49:32.491Z,31.70
2017-11-21T10:50:33.329Z,31.50
2017-11-21T10:51:33.527Z,31.80
2017-11-21T10:52:32.790Z,31.00
2017-11-21T10:53:33.206Z,31.40
2017-11-21T10:54:33.035Z,32.60
2017-11-21T10:55:32.834Z,31.70
2017-11-21T10:56:32.740Z,32.30
2017-11-21T10:57:32.410Z,31.60
2017-11-21T10:58:33.428Z,33.40
2017-11-21T10:59:33.225Z,34.10
2017-11-21T11:00:33.047Z,34.00
2017-11-21T11:01:32.591Z,33.20
2017-11-21T11:02:32.589Z,32.30
2017-11-21T11:03:33.391Z,33.80
2017-11-21T11:04:33.200Z,33.40
2017-11-21T11:05:33.022Z,36.50
2017-11-21T11:06:32.763Z,36.40
2017-11-21T11:07:32.821Z,33.20
2017-11-21T11:08:33.272Z,34.70
2017-11-21T11:09:33.148Z,34.50
2017-11-21T11:10:32.856Z,34.50
2017-11-21T11:11:33.515Z,35.20
2017-11-21T11:12:33.330Z,34.50
2017-11-21T11:13:33.725Z,34.50
2017-11-21T11:14:32.529Z,33.70
2017-11-21T11:15:33.947Z,32.30
2017-11-21T11:16:33.826Z,33.10
2017-11-21T11:17:33.071Z,34.10
2017-11-21T11:18:33.299Z,31.30
2017-11-21T11:20:08.759Z,31.20
2017-11-21T11:21:09.395Z,32.50
2017-11-21T11:22:09.106Z,30.40
2017-11-21T11:23:08.858Z,28.80
2017-11-21T11:24:09.860Z,31.70
2017-11-21T11:25:09.730Z,31.30
2017-11-21T11:26:09.516Z,33.30
2017-11-21T11:27:09.427Z,32.90
2017-11-21T11:28:09.204Z,34.20
2017-11-21T11:29:09.470Z,35.20
2017-11-21T11:30:09.487Z,33.90
2017-11-21T11:31:09.991Z,34.20
2017-11-21T11:32:09.754Z,34.50
2017-11-21T11:33:09.461Z,34.50
2017-11-21T11:34:09.295Z,33.60
2017-11-21T11:35:09.178Z,32.90
2017-11-21T11:36:09.091Z,34.40
2017-11-21T11:37:08.968Z,32.60
2017-11-21T11:38:08.855Z,33.00
2017-11-21T11:39:09.702Z,33.30
2017-11-21T11:40:09.232Z,34.80
2017-11-21T11:41:09.149Z,34.50
2017-11-21T11:42:08.991Z,34.70
2017-11-21T11:43:09.357Z,35.00
2017-11-21T11:44:09.140Z,33.00
2017-11-21T11:45:09.063Z,36.10
2017-11-21T11:46:10.123Z,32.50
2017-11-21T11:47:08.869Z,35.00
2017-11-21T11:48:09.023Z,33.70
2017-11-21T11:49:08.874Z,33.10
2017-11-21T11:50:10.905Z,33.10
2017-11-21T11:51:09.765Z,34.30
2017-11-21T11:52:09.872Z,36.40
2017-11-21T11:53:09.620Z,36.00
2017-11-21T11:54:08.846Z,34.60
2017-11-21T11:55:09.176Z,33.80
2017-11-21T11:56:09.112Z,34.10
2017-11-21T11:57:09.213Z,31.80
2017-11-21T11:58:09.063Z,34.40
2017-11-21T11:59:09.467Z,34.90
2017-11-21T12:00:09.897Z,32.40
2017-11-21T12:01:09.319Z,35.50
2017-11-21T12:02:09.121Z,33.80
2017-11-21T12:03:09.751Z,30.20
2017-11-21T12:04:08.866Z,29.00
2017-11-21T12:05:10.086Z,29.30
2017-11-21T12:06:08.878Z,28.60
2017-11-21T12:07:10.164Z,28.20
2017-11-21T12:08:08.926Z,29.20
2017-11-21T12:09:09.682Z,28.80
2017-11-21T12:10:09.626Z,30.50
2017-11-21T12:11:09.352Z,32.50
2017-11-21T12:12:09.178Z,30.00
2017-11-21T12:13:08.907Z,30.90
2017-11-21T12:14:09.026Z,29.30
2017-11-21T12:15:09.008Z,28.20
2017-11-21T12:16:08.935Z,29.00
2017-11-21T12:17:09.518Z,29.90
2017-11-21T12:18:09.798Z,31.20
2017-11-21T12:19:09.649Z,28.50
2017-11-21T12:20:09.630Z,26.60
2017-11-21T12:21:09.858Z,25.90
2017-11-21T12:22:09.788Z,25.30
2017-11-21T12:23:09.705Z,24.30
2017-11-21T12:24:09.641Z,23.80
2017-11-21T12:25:09.624Z,21.70
2017-11-21T12:26:09.452Z,20.30
2017-11-21T12:27:09.363Z,21.90
2017-11-21T12:28:09.440Z,19.70
2017-11-21T12:29:09.327Z,18.00
2017-11-21T12:30:09.445Z,18.90
2017-11-21T12:31:09.338Z,20.40
2017-11-21T12:32:09.348Z,19.40
2017-11-21T12:33:09.115Z,21.30
2017-11-21T12:34:08.943Z,21.50
2017-11-21T12:35:08.880Z,21.40
2017-11-21T12:36:09.782Z,19.80
2017-11-21T12:37:09.674Z,19.80
2017-11-21T12:38:09.769Z,20.30
2017-11-21T12:39:09.790Z,20.10
2017-11-21T12:40:09.664Z,18.80
2017-11-21T12:41:08.711Z,18.80
2017-11-21T12:42:09.473Z,17.40
2017-11-21T12:43:09.442Z,18.70
2017-11-21T12:44:09.372Z,20.70
2017-11-21T12:45:09.028Z,19.90
2017-11-21T12:46:09.599Z,16.40
2017-11-21T12:47:09.544Z,15.70
2017-11-21T12:48:09.606Z,17.00
2017-11-21T12:49:08.887Z,18.30
2017-11-21T12:50:08.984Z,16.90
2017-11-21T12:51:09.103Z,17.20
2017-11-21T12:52:09.173Z,17.00
2017-11-21T12:53:09.181Z,13.90
2017-11-21T12:54:09.015Z,15.00
2017-11-21T12:55:08.836Z,15.20